sensor_id;sensor_type;location;lat;lon;timestamp;pressure;altitude;pressure_sealevel;temperature;humidity
16094;BME280;8151;47.824;12.092;2023-03-20T00:02:22;96468.78;;;12.10;68.16
16094;BME280;8151;47.824;12.092;2023-03-20T00:04:51;96465.97;;;12.03;68.25
16094;BME280;8151;47.824;12.092;2023-03-20T00:07:21;96467.81;;;12.02;68.29
16094;BME280;8151;47.824;12.092;2023-03-20T00:09:49;96468.78;;;12.01;68.23
16094;BME280;8151;47.824;12.092;2023-03-20T00:12:22;96464.69;;;11.99;68.37
16094;BME280;8151;47.824;12.092;2023-03-20T00:14:52;96470.16;;;11.97;68.10
16094;BME280;8151;47.824;12.092;2023-03-20T00:17:20;96473.81;;;11.96;68.35
16094;BME280;8151;47.824;12.092;2023-03-20T00:19:49;96469.34;;;11.97;68.03
16094;BME280;8151;47.824;12.092;2023-03-20T00:22:17;96467.97;;;12.01;68.28
16094;BME280;8151;47.824;12.092;2023-03-20T00:24:47;96474.94;;;12.02;68.00
16094;BME280;8151;47.824;12.092;2023-03-20T00:27:16;96471.16;;;11.96;68.23
16094;BME280;8151;47.824;12.092;2023-03-20T00:29:45;96477.44;;;11.95;68.01
16094;BME280;8151;47.824;12.092;2023-03-20T00:32:14;96481.13;;;11.94;68.12
16094;BME280;8151;47.824;12.092;2023-03-20T00:34:42;96473.34;;;11.93;68.36
16094;BME280;8151;47.824;12.092;2023-03-20T00:37:11;96479.09;;;11.88;68.42
16094;BME280;8151;47.824;12.092;2023-03-20T00:39:40;96478.16;;;11.81;68.59
16094;BME280;8151;47.824;12.092;2023-03-20T00:42:17;96481.53;;;11.75;69.47
16094;BME280;8151;47.824;12.092;2023-03-20T00:44:49;96475.25;;;11.68;69.16
16094;BME280;8151;47.824;12.092;2023-03-20T00:47:21;96474.09;;;11.62;69.67
16094;BME280;8151;47.824;12.092;2023-03-20T00:49:51;96476.59;;;11.55;69.74
16094;BME280;8151;47.824;12.092;2023-03-20T00:52:21;96477.28;;;11.57;69.93
16094;BME280;8151;47.824;12.092;2023-03-20T00:54:50;96476.09;;;11.60;69.80
16094;BME280;8151;47.824;12.092;2023-03-20T00:57:21;96476.91;;;11.60;69.60
16094;BME280;8151;47.824;12.092;2023-03-20T00:59:55;96477.09;;;11.59;69.80
16094;BME280;8151;47.824;12.092;2023-03-20T01:02:25;96480.38;;;11.61;69.89
16094;BME280;8151;47.824;12.092;2023-03-20T01:04:55;96475.63;;;11.56;69.83
16094;BME280;8151;47.824;12.092;2023-03-20T01:07:24;96474.31;;;11.52;70.20
16094;BME280;8151;47.824;12.092;2023-03-20T01:09:53;96481.59;;;11.50;70.20
16094;BME280;8151;47.824;12.092;2023-03-20T01:12:23;96476.97;;;11.52;70.33
16094;BME280;8151;47.824;12.092;2023-03-20T01:14:54;96476.78;;;11.54;70.35
16094;BME280;8151;47.824;12.092;2023-03-20T01:17:24;96469.66;;;11.54;70.53
16094;BME280;8151;47.824;12.092;2023-03-20T01:19:53;96465.53;;;11.52;70.49
16094;BME280;8151;47.824;12.092;2023-03-20T01:22:22;96469.00;;;11.52;70.75
16094;BME280;8151;47.824;12.092;2023-03-20T01:24:50;96472.31;;;11.54;70.44
16094;BME280;8151;47.824;12.092;2023-03-20T01:27:19;96465.19;;;11.55;70.61
16094;BME280;8151;47.824;12.092;2023-03-20T01:29:49;96467.19;;;11.53;70.83
16094;BME280;8151;47.824;12.092;2023-03-20T01:32:18;96472.84;;;11.50;70.99
16094;BME280;8151;47.824;12.092;2023-03-20T01:34:47;96476.31;;;11.50;70.83
16094;BME280;8151;47.824;12.092;2023-03-20T01:37:17;96471.81;;;11.51;71.00
16094;BME280;8151;47.824;12.092;2023-03-20T01:39:48;96473.66;;;11.50;71.14
16094;BME280;8151;47.824;12.092;2023-03-20T01:42:16;96475.97;;;11.45;71.22
16094;BME280;8151;47.824;12.092;2023-03-20T01:44:45;96472.50;;;11.45;71.27
16094;BME280;8151;47.824;12.092;2023-03-20T01:47:18;96468.03;;;11.45;71.44
16094;BME280;8151;47.824;12.092;2023-03-20T01:50:13;96469.69;;;11.46;71.47
16094;BME280;8151;47.824;12.092;2023-03-20T01:52:47;96470.69;;;11.45;71.34
16094;BME280;8151;47.824;12.092;2023-03-20T01:55:18;96469.69;;;11.46;71.31
16094;BME280;8151;47.824;12.092;2023-03-20T01:57:50;96464.22;;;11.48;71.17
16094;BME280;8151;47.824;12.092;2023-03-20T02:00:23;96471.00;;;11.50;71.44
16094;BME280;8151;47.824;12.092;2023-03-20T02:02:54;96469.81;;;11.53;71.29
16094;BME280;8151;47.824;12.092;2023-03-20T02:05:24;96471.50;;;11.54;71.12
16094;BME280;8151;47.824;12.092;2023-03-20T02:08:04;96469.81;;;11.53;71.44
16094;BME280;8151;47.824;12.092;2023-03-20T02:10:37;96472.63;;;11.51;71.12
16094;BME280;8151;47.824;12.092;2023-03-20T02:13:07;96469.34;;;11.49;71.18
16094;BME280;8151;47.824;12.092;2023-03-20T02:15:53;96476.31;;;11.50;71.87
16094;BME280;8151;47.824;12.092;2023-03-20T02:18:24;96470.34;;;11.48;71.04
16094;BME280;8151;47.824;12.092;2023-03-20T02:24:39;96471.81;;;11.51;71.74
16094;BME280;8151;47.824;12.092;2023-03-20T02:27:17;96472.00;;;11.49;71.11
16094;BME280;8151;47.824;12.092;2023-03-20T02:30:22;96471.34;;;11.47;71.38
16094;BME280;8151;47.824;12.092;2023-03-20T02:39:30;96468.06;;;11.37;71.64
16094;BME280;8151;47.824;12.092;2023-03-20T02:42:10;96466.94;;;11.31;71.50
16094;BME280;8151;47.824;12.092;2023-03-20T02:44:46;96470.22;;;11.33;71.68
16094;BME280;8151;47.824;12.092;2023-03-20T02:47:22;96467.09;;;11.30;71.85
16094;BME280;8151;47.824;12.092;2023-03-20T02:50:02;96460.66;;;11.24;72.40
16094;BME280;8151;47.824;12.092;2023-03-20T02:52:42;96463.00;;;11.19;72.20
16094;BME280;8151;47.824;12.092;2023-03-20T02:55:18;96458.50;;;11.19;72.11
16094;BME280;8151;47.824;12.092;2023-03-20T02:57:56;96456.53;;;11.21;72.57
16094;BME280;8151;47.824;12.092;2023-03-20T03:00:28;96462.47;;;11.23;72.57
16094;BME280;8151;47.824;12.092;2023-03-20T03:03:05;96465.13;;;11.23;72.71
16094;BME280;8151;47.824;12.092;2023-03-20T03:05:41;96465.63;;;11.19;72.77
16094;BME280;8151;47.824;12.092;2023-03-20T03:08:12;96471.09;;;11.17;72.40
16094;BME280;8151;47.824;12.092;2023-03-20T03:10:45;96461.97;;;11.20;72.77
16094;BME280;8151;47.824;12.092;2023-03-20T03:13:20;96461.16;;;11.19;72.87
16094;BME280;8151;47.824;12.092;2023-03-20T03:15:53;96468.28;;;11.19;72.74
16094;BME280;8151;47.824;12.092;2023-03-20T03:18:24;96463.31;;;11.16;72.69
16094;BME280;8151;47.824;12.092;2023-03-20T03:20:56;96466.13;;;11.14;73.22
16094;BME280;8151;47.824;12.092;2023-03-20T03:23:29;96468.97;;;11.13;73.46
16094;BME280;8151;47.824;12.092;2023-03-20T03:26:01;96474.28;;;11.13;73.17
16094;BME280;8151;47.824;12.092;2023-03-20T03:28:35;96470.13;;;11.10;73.19
16094;BME280;8151;47.824;12.092;2023-03-20T03:31:10;96473.78;;;11.09;73.51
16094;BME280;8151;47.824;12.092;2023-03-20T03:33:41;96469.63;;;11.07;73.74
16094;BME280;8151;47.824;12.092;2023-03-20T03:36:17;96473.44;;;11.04;73.86
16094;BME280;8151;47.824;12.092;2023-03-20T03:38:54;96475.59;;;11.00;74.30
16094;BME280;8151;47.824;12.092;2023-03-20T03:41:29;96473.47;;;10.96;73.91
16094;BME280;8151;47.824;12.092;2023-03-20T03:44:05;96477.44;;;10.92;74.15
16094;BME280;8151;47.824;12.092;2023-03-20T03:46:39;96475.13;;;10.89;74.39
16094;BME280;8151;47.824;12.092;2023-03-20T03:49:15;96477.75;;;10.89;74.24
16094;BME280;8151;47.824;12.092;2023-03-20T03:51:48;96475.28;;;10.87;74.34
16094;BME280;8151;47.824;12.092;2023-03-20T03:54:21;96468.34;;;10.86;74.12
16094;BME280;8151;47.824;12.092;2023-03-20T03:56:55;96479.75;;;10.87;74.25
16094;BME280;8151;47.824;12.092;2023-03-20T03:59:29;96472.47;;;10.89;74.60
16094;BME280;8151;47.824;12.092;2023-03-20T04:02:00;96484.72;;;10.90;74.67
16094;BME280;8151;47.824;12.092;2023-03-20T04:04:31;96489.16;;;10.89;74.59
16094;BME280;8151;47.824;12.092;2023-03-20T04:07:01;96486.72;;;10.88;74.84
16094;BME280;8151;47.824;12.092;2023-03-20T04:09:30;96492.47;;;10.91;74.92
16094;BME280;8151;47.824;12.092;2023-03-20T04:12:01;96491.34;;;10.94;74.97
16094;BME280;8151;47.824;12.092;2023-03-20T04:14:29;96490.97;;;10.97;74.70
16094;BME280;8151;47.824;12.092;2023-03-20T04:16:58;96494.97;;;10.93;74.71
16094;BME280;8151;47.824;12.092;2023-03-20T04:19:26;96491.84;;;10.81;75.34
16094;BME280;8151;47.824;12.092;2023-03-20T04:21:55;96495.97;;;10.83;75.57
16094;BME280;8151;47.824;12.092;2023-03-20T04:24:23;96496.94;;;10.91;75.23
16094;BME280;8151;47.824;12.092;2023-03-20T04:26:52;96498.44;;;10.93;75.27
16094;BME280;8151;47.824;12.092;2023-03-20T04:29:22;96496.13;;;10.90;75.33
16094;BME280;8151;47.824;12.092;2023-03-20T04:31:50;96510.84;;;10.93;75.51
16094;BME280;8151;47.824;12.092;2023-03-20T04:34:19;96507.38;;;10.92;75.33
16094;BME280;8151;47.824;12.092;2023-03-20T04:36:47;96514.16;;;10.95;75.42
16094;BME280;8151;47.824;12.092;2023-03-20T04:39:18;96512.16;;;10.97;75.08
16094;BME280;8151;47.824;12.092;2023-03-20T04:41:46;96513.84;;;10.98;75.33
16094;BME280;8151;47.824;12.092;2023-03-20T04:44:15;96516.81;;;10.95;75.26
16094;BME280;8151;47.824;12.092;2023-03-20T04:46:44;96511.84;;;10.92;75.30
16094;BME280;8151;47.824;12.092;2023-03-20T04:49:13;96518.13;;;10.91;75.61
16094;BME280;8151;47.824;12.092;2023-03-20T04:51:41;96524.09;;;10.93;75.78
16094;BME280;8151;47.824;12.092;2023-03-20T04:54:10;96532.84;;;10.93;75.86
16094;BME280;8151;47.824;12.092;2023-03-20T04:56:38;96530.88;;;10.95;75.52
16094;BME280;8151;47.824;12.092;2023-03-20T04:59:07;96531.72;;;10.96;75.96
16094;BME280;8151;47.824;12.092;2023-03-20T05:01:35;96537.97;;;10.95;75.77
16094;BME280;8151;47.824;12.092;2023-03-20T05:04:05;96537.31;;;10.93;75.98
16094;BME280;8151;47.824;12.092;2023-03-20T05:06:34;96537.31;;;10.93;75.55
16094;BME280;8151;47.824;12.092;2023-03-20T05:09:03;96541.78;;;10.92;75.82
16094;BME280;8151;47.824;12.092;2023-03-20T05:11:31;96544.44;;;10.92;75.69
16094;BME280;8151;47.824;12.092;2023-03-20T05:14:00;96541.47;;;10.87;76.18
16094;BME280;8151;47.824;12.092;2023-03-20T05:16:28;96554.03;;;10.85;76.12
16094;BME280;8151;47.824;12.092;2023-03-20T05:18:57;96552.56;;;10.82;76.42
16094;BME280;8151;47.824;12.092;2023-03-20T05:21:27;96555.50;;;10.79;76.56
16094;BME280;8151;47.824;12.092;2023-03-20T05:23:55;96555.84;;;10.76;76.51
16094;BME280;8151;47.824;12.092;2023-03-20T05:26:24;96560.50;;;10.74;76.47
16094;BME280;8151;47.824;12.092;2023-03-20T05:28:52;96558.97;;;10.72;76.40
16094;BME280;8151;47.824;12.092;2023-03-20T05:31:21;96564.13;;;10.73;76.70
16094;BME280;8151;47.824;12.092;2023-03-20T05:33:49;96567.78;;;10.72;77.01
16094;BME280;8151;47.824;12.092;2023-03-20T05:36:17;96560.31;;;10.68;76.42
16094;BME280;8151;47.824;12.092;2023-03-20T05:38:47;96558.66;;;10.67;76.87
16094;BME280;8151;47.824;12.092;2023-03-20T05:41:16;96569.41;;;10.65;77.03
16094;BME280;8151;47.824;12.092;2023-03-20T05:43:44;96566.75;;;10.65;77.14
16094;BME280;8151;47.824;12.092;2023-03-20T05:46:13;96566.75;;;10.65;77.52
16094;BME280;8151;47.824;12.092;2023-03-20T05:48:41;96565.94;;;10.64;77.18
16094;BME280;8151;47.824;12.092;2023-03-20T05:51:10;96566.75;;;10.65;77.42
16094;BME280;8151;47.824;12.092;2023-03-20T05:53:38;96574.53;;;10.67;77.16
16094;BME280;8151;47.824;12.092;2023-03-20T05:56:08;96575.03;;;10.70;77.43
16094;BME280;8151;47.824;12.092;2023-03-20T05:58:37;96574.69;;;10.73;77.68
16094;BME280;8151;47.824;12.092;2023-03-20T06:01:06;96571.75;;;10.76;77.14
16094;BME280;8151;47.824;12.092;2023-03-20T06:03:34;96577.84;;;10.77;77.39
16094;BME280;8151;47.824;12.092;2023-03-20T06:06:03;96585.78;;;10.77;77.74
16094;BME280;8151;47.824;12.092;2023-03-20T06:08:32;96585.63;;;10.78;77.44
16094;BME280;8151;47.824;12.092;2023-03-20T06:11:02;96580.19;;;10.80;78.02
16094;BME280;8151;47.824;12.092;2023-03-20T06:13:32;96585.47;;;10.80;77.66
16094;BME280;8151;47.824;12.092;2023-03-20T06:16:01;96594.09;;;10.82;78.32
16094;BME280;8151;47.824;12.092;2023-03-20T06:18:29;96588.78;;;10.82;77.75
16094;BME280;8151;47.824;12.092;2023-03-20T06:20:58;96589.91;;;10.79;78.05
16094;BME280;8151;47.824;12.092;2023-03-20T06:23:28;96598.72;;;10.80;78.03
16094;BME280;8151;47.824;12.092;2023-03-20T06:25:56;96596.53;;;10.83;78.68
16094;BME280;8151;47.824;12.092;2023-03-20T06:28:24;96604.00;;;10.88;78.29
16094;BME280;8151;47.824;12.092;2023-03-20T06:30:54;96606.66;;;10.88;78.11
16094;BME280;8151;47.824;12.092;2023-03-20T06:33:23;96616.41;;;10.88;78.21
16094;BME280;8151;47.824;12.092;2023-03-20T06:35:52;96615.25;;;10.90;78.60
16094;BME280;8151;47.824;12.092;2023-03-20T06:38:20;96613.13;;;10.94;78.89
16094;BME280;8151;47.824;12.092;2023-03-20T06:40:49;96620.41;;;10.92;78.73
16094;BME280;8151;47.824;12.092;2023-03-20T06:43:17;96616.06;;;10.91;78.88
16094;BME280;8151;47.824;12.092;2023-03-20T06:45:46;96626.50;;;10.92;78.71
16094;BME280;8151;47.824;12.092;2023-03-20T06:48:16;96620.41;;;10.92;78.41
16094;BME280;8151;47.824;12.092;2023-03-20T06:50:48;96627.69;;;10.90;78.89
16094;BME280;8151;47.824;12.092;2023-03-20T06:53:17;96623.88;;;10.84;78.89
16094;BME280;8151;47.824;12.092;2023-03-20T06:55:46;96629.81;;;10.86;78.82
16094;BME280;8151;47.824;12.092;2023-03-20T06:58:15;96637.25;;;10.82;79.02
16094;BME280;8151;47.824;12.092;2023-03-20T07:00:44;96629.97;;;10.84;78.80
16094;BME280;8151;47.824;12.092;2023-03-20T07:03:13;96634.09;;;10.87;78.92
16094;BME280;8151;47.824;12.092;2023-03-20T07:05:44;96632.31;;;10.88;78.76
16094;BME280;8151;47.824;12.092;2023-03-20T07:08:12;96633.94;;;10.89;78.96
16094;BME280;8151;47.824;12.092;2023-03-20T07:10:41;96642.72;;;10.89;78.87
16094;BME280;8151;47.824;12.092;2023-03-20T07:13:09;96641.88;;;10.89;79.13
16094;BME280;8151;47.824;12.092;2023-03-20T07:15:38;96645.03;;;10.92;78.81
16094;BME280;8151;47.824;12.092;2023-03-20T07:18:23;96647.84;;;10.99;78.81
16094;BME280;8151;47.824;12.092;2023-03-20T07:20:58;96649.19;;;11.03;79.15
16094;BME280;8151;47.824;12.092;2023-03-20T07:23:27;96653.34;;;11.06;78.86
16094;BME280;8151;47.824;12.092;2023-03-20T07:25:56;96653.66;;;11.02;78.95
16094;BME280;8151;47.824;12.092;2023-03-20T07:28:25;96650.69;;;11.06;78.68
16094;BME280;8151;47.824;12.092;2023-03-20T07:30:57;96644.22;;;11.08;78.71
16094;BME280;8151;47.824;12.092;2023-03-20T07:33:28;96647.38;;;11.12;78.81
16094;BME280;8151;47.824;12.092;2023-03-20T07:35:57;96646.22;;;11.14;78.64
16094;BME280;8151;47.824;12.092;2023-03-20T07:38:26;96649.53;;;11.16;78.68
16094;BME280;8151;47.824;12.092;2023-03-20T07:40:54;96652.81;;;11.18;78.98
16094;BME280;8151;47.824;12.092;2023-03-20T07:43:23;96655.16;;;11.21;78.64
16094;BME280;8151;47.824;12.092;2023-03-20T07:45:51;96658.97;;;11.27;78.73
16094;BME280;8151;47.824;12.092;2023-03-20T07:48:20;96660.44;;;11.30;78.80
16094;BME280;8151;47.824;12.092;2023-03-20T07:50:48;96669.91;;;11.32;78.79
16094;BME280;8151;47.824;12.092;2023-03-20T07:53:18;96663.75;;;11.32;78.56
16094;BME280;8151;47.824;12.092;2023-03-20T07:55:46;96667.06;;;11.34;78.81
16094;BME280;8151;47.824;12.092;2023-03-20T07:58:15;96667.56;;;11.37;78.54
16094;BME280;8151;47.824;12.092;2023-03-20T08:00:43;96665.59;;;11.39;78.42
16094;BME280;8151;47.824;12.092;2023-03-20T08:03:12;96668.75;;;11.43;78.70
16094;BME280;8151;47.824;12.092;2023-03-20T08:05:40;96667.41;;;11.47;78.81
16094;BME280;8151;47.824;12.092;2023-03-20T08:08:13;96671.72;;;11.48;78.57
16094;BME280;8151;47.824;12.092;2023-03-20T08:10:42;96671.38;;;11.51;78.66
16094;BME280;8151;47.824;12.092;2023-03-20T08:13:11;96674.53;;;11.55;78.33
16094;BME280;8151;47.824;12.092;2023-03-20T08:15:39;96669.38;;;11.53;78.14
16094;BME280;8151;47.824;12.092;2023-03-20T08:18:08;96676.34;;;11.54;78.36
16094;BME280;8151;47.824;12.092;2023-03-20T08:20:36;96682.81;;;11.52;78.32
16094;BME280;8151;47.824;12.092;2023-03-20T08:23:05;96677.84;;;11.49;78.13
16094;BME280;8151;47.824;12.092;2023-03-20T08:25:33;96680.19;;;11.52;77.59
16094;BME280;8151;47.824;12.092;2023-03-20T08:28:04;96676.34;;;11.54;77.50
16094;BME280;8151;47.824;12.092;2023-03-20T08:30:32;96678.00;;;11.47;77.71
16094;BME280;8151;47.824;12.092;2023-03-20T08:33:00;96678.69;;;11.41;77.45
16094;BME280;8151;47.824;12.092;2023-03-20T08:35:29;96682.34;;;11.40;77.75
16094;BME280;8151;47.824;12.092;2023-03-20T08:38:01;96685.28;;;11.45;77.71
16094;BME280;8151;47.824;12.092;2023-03-20T08:40:29;96682.81;;;11.43;77.35
16094;BME280;8151;47.824;12.092;2023-03-20T08:42:58;96682.31;;;11.48;77.31
16094;BME280;8151;47.824;12.092;2023-03-20T08:45:28;96683.16;;;11.49;77.03
16094;BME280;8151;47.824;12.092;2023-03-20T08:47:56;96681.66;;;11.46;76.84
16094;BME280;8151;47.824;12.092;2023-03-20T08:50:25;96678.69;;;11.41;76.72
16094;BME280;8151;47.824;12.092;2023-03-20T08:52:53;96681.31;;;11.41;76.72
16094;BME280;8151;47.824;12.092;2023-03-20T08:55:22;96683.81;;;11.42;76.75
16094;BME280;8151;47.824;12.092;2023-03-20T08:57:51;96676.69;;;11.43;76.53
16094;BME280;8151;47.824;12.092;2023-03-20T09:00:21;96677.69;;;11.50;76.37
16094;BME280;8151;47.824;12.092;2023-03-20T09:02:51;96675.84;;;11.59;75.76
16094;BME280;8151;47.824;12.092;2023-03-20T09:05:19;96681.81;;;11.69;75.71
16094;BME280;8151;47.824;12.092;2023-03-20T09:07:48;96674.50;;;11.79;75.24
16094;BME280;8151;47.824;12.092;2023-03-20T09:10:17;96676.31;;;11.87;75.15
16094;BME280;8151;47.824;12.092;2023-03-20T09:12:46;96681.31;;;11.90;75.15
16094;BME280;8151;47.824;12.092;2023-03-20T09:15:14;96676.31;;;11.95;75.05
16094;BME280;8151;47.824;12.092;2023-03-20T09:17:42;96671.34;;;12.00;75.10
16094;BME280;8151;47.824;12.092;2023-03-20T09:20:12;96668.84;;;12.07;74.90
16094;BME280;8151;47.824;12.092;2023-03-20T09:22:47;96669.16;;;12.12;74.60
16094;BME280;8151;47.824;12.092;2023-03-20T09:25:15;96662.66;;;12.23;74.37
16094;BME280;8151;47.824;12.092;2023-03-20T09:27:44;96664.44;;;12.31;74.32
16094;BME280;8151;47.824;12.092;2023-03-20T09:30:13;96664.94;;;12.34;74.29
16094;BME280;8151;47.824;12.092;2023-03-20T09:32:41;96668.91;;;12.38;73.87
16094;BME280;8151;47.824;12.092;2023-03-20T09:35:10;96666.25;;;12.38;73.82
16094;BME280;8151;47.824;12.092;2023-03-20T09:37:40;96656.00;;;12.35;73.27
16094;BME280;8151;47.824;12.092;2023-03-20T09:40:21;96661.31;;;12.35;73.33
16094;BME280;8151;47.824;12.092;2023-03-20T09:42:58;96651.81;;;12.41;73.23
16094;BME280;8151;47.824;12.092;2023-03-20T09:45:38;96648.31;;;12.49;72.86
16094;BME280;8151;47.824;12.092;2023-03-20T09:48:17;96646.78;;;12.54;72.28
16094;BME280;8151;47.824;12.092;2023-03-20T09:50:56;96649.06;;;12.57;72.18
16094;BME280;8151;47.824;12.092;2023-03-20T09:53:31;96652.69;;;12.65;72.15
16094;BME280;8151;47.824;12.092;2023-03-20T09:56:02;96642.03;;;12.73;71.73
16094;BME280;8151;47.824;12.092;2023-03-20T09:58:33;96635.31;;;12.85;71.45
16094;BME280;8151;47.824;12.092;2023-03-20T10:01:04;96630.72;;;13.02;70.79
16094;BME280;8151;47.824;12.092;2023-03-20T10:03:40;96631.06;;;13.22;70.40
16094;BME280;8151;47.824;12.092;2023-03-20T10:06:12;96632.81;;;13.38;70.40
16094;BME280;8151;47.824;12.092;2023-03-20T10:08:43;96626.16;;;13.57;70.28
16094;BME280;8151;47.824;12.092;2023-03-20T10:11:29;96617.66;;;13.76;69.67
16094;BME280;8151;47.824;12.092;2023-03-20T10:14:17;96623.63;;;13.93;69.90
16094;BME280;8151;47.824;12.092;2023-03-20T10:17:00;96617.38;;;14.01;69.65
16094;BME280;8151;47.824;12.092;2023-03-20T10:19:34;96626.09;;;13.95;69.81
16094;BME280;8151;47.824;12.092;2023-03-20T10:22:10;96625.56;;;13.85;69.85
16094;BME280;8151;47.824;12.092;2023-03-20T10:24:47;96620.50;;;13.90;69.57
16094;BME280;8151;47.824;12.092;2023-03-20T10:27:21;96617.13;;;13.96;69.50
16094;BME280;8151;47.824;12.092;2023-03-20T10:30:05;96620.31;;;13.91;68.98
16094;BME280;8151;47.824;12.092;2023-03-20T10:32:45;96619.66;;;13.74;69.33
16094;BME280;8151;47.824;12.092;2023-03-20T10:35:20;96618.50;;;13.77;68.78
16094;BME280;8151;47.824;12.092;2023-03-20T10:38:01;96621.41;;;13.82;68.42
16094;BME280;8151;47.824;12.092;2023-03-20T10:40:36;96614.81;;;13.93;68.33
16094;BME280;8151;47.824;12.092;2023-03-20T10:43:12;96603.91;;;14.03;67.87
16094;BME280;8151;47.824;12.092;2023-03-20T10:45:45;96608.94;;;13.97;68.03
16094;BME280;8151;47.824;12.092;2023-03-20T10:48:20;96611.34;;;13.92;67.82
16094;BME280;8151;47.824;12.092;2023-03-20T10:50:52;96612.09;;;13.86;68.11
16094;BME280;8151;47.824;12.092;2023-03-20T10:53:30;96600.63;;;13.71;67.82
16094;BME280;8151;47.824;12.092;2023-03-20T10:56:04;96614.81;;;13.63;67.82
16094;BME280;8151;47.824;12.092;2023-03-20T10:58:36;96600.75;;;13.54;67.85
16094;BME280;8151;47.824;12.092;2023-03-20T11:01:06;96593.81;;;13.53;67.88
16094;BME280;8151;47.824;12.092;2023-03-20T11:03:35;96596.47;;;13.53;67.93
16094;BME280;8151;47.824;12.092;2023-03-20T11:06:11;96593.81;;;13.53;67.71
16094;BME280;8151;47.824;12.092;2023-03-20T11:08:47;96590.75;;;13.56;67.58
16094;BME280;8151;47.824;12.092;2023-03-20T11:11:29;96599.56;;;13.57;67.16
16094;BME280;8151;47.824;12.092;2023-03-20T11:14:13;96596.47;;;13.53;67.30
16094;BME280;8151;47.824;12.092;2023-03-20T11:16:47;96595.25;;;13.56;67.06
16094;BME280;8151;47.824;12.092;2023-03-20T11:19:19;96595.34;;;13.63;66.91
16094;BME280;8151;47.824;12.092;2023-03-20T11:21:49;96593.81;;;13.68;66.38
16094;BME280;8151;47.824;12.092;2023-03-20T11:24:25;96584.66;;;13.71;66.23
16094;BME280;8151;47.824;12.092;2023-03-20T11:27:04;96594.56;;;13.77;65.97
16094;BME280;8151;47.824;12.092;2023-03-20T11:29:33;96588.03;;;13.79;65.89
16094;BME280;8151;47.824;12.092;2023-03-20T11:32:04;96586.03;;;13.82;65.66
16094;BME280;8151;47.824;12.092;2023-03-20T11:34:36;96590.53;;;13.81;65.80
16094;BME280;8151;47.824;12.092;2023-03-20T11:37:20;96582.19;;;13.84;65.11
16094;BME280;8151;47.824;12.092;2023-03-20T11:39:55;96590.16;;;13.84;65.46
16094;BME280;8151;47.824;12.092;2023-03-20T11:42:27;96584.84;;;13.84;65.34
16094;BME280;8151;47.824;12.092;2023-03-20T11:44:59;96586.13;;;13.88;65.53
16094;BME280;8151;47.824;12.092;2023-03-20T11:47:33;96590.81;;;13.86;65.40
16094;BME280;8151;47.824;12.092;2023-03-20T11:50:04;96579.88;;;13.81;65.59
16094;BME280;8151;47.824;12.092;2023-03-20T11:52:34;96581.91;;;13.79;65.69
16094;BME280;8151;47.824;12.092;2023-03-20T11:55:06;96580.72;;;13.67;65.34
16094;BME280;8151;47.824;12.092;2023-03-20T11:57:55;96581.78;;;13.57;65.52
16094;BME280;8151;47.824;12.092;2023-03-20T12:00:25;96575.19;;;13.53;65.63
16094;BME280;8151;47.824;12.092;2023-03-20T12:02:56;96577.22;;;13.51;65.56
16094;BME280;8151;47.824;12.092;2023-03-20T12:05:31;96569.41;;;13.50;65.25
16094;BME280;8151;47.824;12.092;2023-03-20T12:08:02;96570.22;;;13.50;65.57
16094;BME280;8151;47.824;12.092;2023-03-20T12:10:35;96568.94;;;13.46;65.29
16094;BME280;8151;47.824;12.092;2023-03-20T12:13:13;96565.63;;;13.44;65.53
16094;BME280;8151;47.824;12.092;2023-03-20T12:15:45;96567.91;;;13.47;65.41
16094;BME280;8151;47.824;12.092;2023-03-20T12:18:29;96569.03;;;13.53;65.40
16094;BME280;8151;47.824;12.092;2023-03-20T12:21:04;96569.88;;;13.53;65.51
16094;BME280;8151;47.824;12.092;2023-03-20T12:23:37;96572.25;;;13.48;65.44
16094;BME280;8151;47.824;12.092;2023-03-20T12:26:11;96571.59;;;13.46;65.36
16094;BME280;8151;47.824;12.092;2023-03-20T12:28:46;96563.28;;;13.49;64.87
16094;BME280;8151;47.824;12.092;2023-03-20T12:31:23;96572.16;;;13.56;64.73
16094;BME280;8151;47.824;12.092;2023-03-20T12:33:56;96569.25;;;13.51;64.78
16094;BME280;8151;47.824;12.092;2023-03-20T12:36:31;96567.56;;;13.50;64.56
16094;BME280;8151;47.824;12.092;2023-03-20T12:39:02;96568.59;;;13.49;64.59
16094;BME280;8151;47.824;12.092;2023-03-20T12:41:39;96569.25;;;13.51;64.22
16094;BME280;8151;47.824;12.092;2023-03-20T12:44:32;96567.22;;;13.53;63.95
16094;BME280;8151;47.824;12.092;2023-03-20T12:47:14;96574.00;;;13.56;64.38
16094;BME280;8151;47.824;12.092;2023-03-20T12:49:55;96573.81;;;13.57;64.46
16094;BME280;8151;47.824;12.092;2023-03-20T12:52:34;96575.44;;;13.58;64.63
16094;BME280;8151;47.824;12.092;2023-03-20T12:55:11;96569.50;;;13.56;64.92
16094;BME280;8151;47.824;12.092;2023-03-20T12:57:51;96572.53;;;13.53;65.20
16094;BME280;8151;47.824;12.092;2023-03-20T13:00:29;96573.53;;;13.52;65.48
16094;BME280;8151;47.824;12.092;2023-03-20T13:03:22;96573.69;;;13.51;65.70
16094;BME280;8151;47.824;12.092;2023-03-20T13:06:01;96564.09;;;13.50;65.81
16094;BME280;8151;47.824;12.092;2023-03-20T13:11:43;96563.53;;;13.54;65.92
16094;BME280;8151;47.824;12.092;2023-03-20T13:14:18;96551.91;;;13.55;65.65
16094;BME280;8151;47.824;12.092;2023-03-20T13:16:54;96554.75;;;13.54;65.56
16094;BME280;8151;47.824;12.092;2023-03-20T13:19:30;96551.91;;;13.55;65.66
16094;BME280;8151;47.824;12.092;2023-03-20T13:22:04;96555.03;;;13.59;65.36
16094;BME280;8151;47.824;12.092;2023-03-20T13:24:39;96549.81;;;13.66;65.29
16094;BME280;8151;47.824;12.092;2023-03-20T13:27:19;96546.78;;;13.69;65.51
16094;BME280;8151;47.824;12.092;2023-03-20T13:29:54;96556.69;;;13.75;65.24
16094;BME280;8151;47.824;12.092;2023-03-20T13:32:36;96552.81;;;13.77;65.37
16094;BME280;8151;47.824;12.092;2023-03-20T13:35:21;96551.44;;;13.82;64.94
16094;BME280;8151;47.824;12.092;2023-03-20T13:38:01;96549.59;;;13.82;65.05
16094;BME280;8151;47.824;12.092;2023-03-20T13:40:37;96548.44;;;13.85;65.44